sensor_id;sensor_type;location;lat;lon;timestamp;P1;durP1;ratioP1;P2;durP2;ratioP2
64061;SDS011;50308;47.438;-1.528;2023-11-18T00:01:58;2.80;;;1.10;;
64061;SDS011;50308;47.438;-1.528;2023-11-18T00:04:24;2.13;;;1.15;;
64061;SDS011;50308;47.438;-1.528;2023-11-18T00:06:50;2.88;;;1.20;;
64061;SDS011;50308;47.438;-1.528;2023-11-18T00:09:16;1.90;;;1.42;;
64061;SDS011;50308;47.438;-1.528;2023-11-18T00:11:42;3.10;;;1.33;;
64061;SDS011;50308;47.438;-1.528;2023-11-18T00:14:08;4.75;;;2.15;;
64061;SDS011;50308;47.438;-1.528;2023-11-18T00:16:36;3.15;;;1.35;;
64061;SDS011;50308;47.438;-1.528;2023-11-18T00:19:03;3.35;;;1.55;;
64061;SDS011;50308;47.438;-1.528;2023-11-18T00:21:34;3.63;;;1.27;;
64061;SDS011;50308;47.438;-1.528;2023-11-18T00:24:01;5.07;;;2.10;;
64061;SDS011;50308;47.438;-1.528;2023-11-18T00:26:27;3.90;;;2.00;;
64061;SDS011;50308;47.438;-1.528;2023-11-18T00:28:52;3.58;;;1.60;;
64061;SDS011;50308;47.438;-1.528;2023-11-18T00:31:18;4.03;;;1.60;;
64061;SDS011;50308;47.438;-1.528;2023-11-18T00:33:43;2.55;;;1.50;;
64061;SDS011;50308;47.438;-1.528;2023-11-18T00:36:10;2.92;;;1.50;;
64061;SDS011;50308;47.438;-1.528;2023-11-18T00:38:35;1.65;;;1.23;;
64061;SDS011;50308;47.438;-1.528;2023-11-18T00:41:01;3.25;;;2.05;;
64061;SDS011;50308;47.438;-1.528;2023-11-18T00:43:26;3.58;;;2.00;;
64061;SDS011;50308;47.438;-1.528;2023-11-18T00:45:52;3.47;;;2.08;;
64061;SDS011;50308;47.438;-1.528;2023-11-18T00:48:18;4.82;;;2.00;;
64061;SDS011;50308;47.438;-1.528;2023-11-18T00:50:43;4.00;;;1.52;;
64061;SDS011;50308;47.438;-1.528;2023-11-18T00:53:09;3.75;;;1.75;;
64061;SDS011;50308;47.438;-1.528;2023-11-18T00:55:35;4.22;;;2.10;;
64061;SDS011;50308;47.438;-1.528;2023-11-18T00:58:01;3.13;;;1.83;;
64061;SDS011;50308;47.438;-1.528;2023-11-18T01:00:26;2.92;;;1.50;;
64061;SDS011;50308;47.438;-1.528;2023-11-18T01:02:52;3.33;;;1.30;;
64061;SDS011;50308;47.438;-1.528;2023-11-18T01:05:20;4.20;;;1.75;;
64061;SDS011;50308;47.438;-1.528;2023-11-18T01:07:45;3.67;;;1.77;;
64061;SDS011;50308;47.438;-1.528;2023-11-18T01:10:11;4.10;;;1.60;;
64061;SDS011;50308;47.438;-1.528;2023-11-18T01:12:38;3.45;;;1.92;;
64061;SDS011;50308;47.438;-1.528;2023-11-18T01:15:05;9.35;;;5.53;;
64061;SDS011;50308;47.438;-1.528;2023-11-18T01:17:32;5.72;;;2.58;;
64061;SDS011;50308;47.438;-1.528;2023-11-18T01:19:58;3.42;;;2.10;;
64061;SDS011;50308;47.438;-1.528;2023-11-18T01:22:24;3.83;;;2.17;;
64061;SDS011;50308;47.438;-1.528;2023-11-18T01:24:50;3.33;;;1.98;;
64061;SDS011;50308;47.438;-1.528;2023-11-18T01:27:18;2.75;;;1.55;;
64061;SDS011;50308;47.438;-1.528;2023-11-18T01:29:45;3.72;;;1.80;;
64061;SDS011;50308;47.438;-1.528;2023-11-18T01:32:12;4.05;;;1.70;;
64061;SDS011;50308;47.438;-1.528;2023-11-18T01:34:39;2.15;;;1.48;;
64061;SDS011;50308;47.438;-1.528;2023-11-18T01:37:05;3.25;;;1.98;;
64061;SDS011;50308;47.438;-1.528;2023-11-18T01:39:35;4.55;;;1.55;;
64061;SDS011;50308;47.438;-1.528;2023-11-18T01:42:01;3.65;;;1.63;;
64061;SDS011;50308;47.438;-1.528;2023-11-18T01:44:28;2.60;;;1.40;;
64061;SDS011;50308;47.438;-1.528;2023-11-18T01:46:57;3.05;;;1.80;;
64061;SDS011;50308;47.438;-1.528;2023-11-18T01:49:23;4.53;;;1.92;;
64061;SDS011;50308;47.438;-1.528;2023-11-18T01:51:52;2.53;;;1.50;;
64061;SDS011;50308;47.438;-1.528;2023-11-18T01:54:19;3.33;;;2.10;;
64061;SDS011;50308;47.438;-1.528;2023-11-18T01:56:48;2.85;;;1.75;;
64061;SDS011;50308;47.438;-1.528;2023-11-18T01:59:14;2.70;;;1.60;;
64061;SDS011;50308;47.438;-1.528;2023-11-18T02:01:51;4.88;;;2.08;;
64061;SDS011;50308;47.438;-1.528;2023-11-18T02:04:18;5.38;;;2.72;;
64061;SDS011;50308;47.438;-1.528;2023-11-18T02:06:44;5.22;;;2.78;;
64061;SDS011;50308;47.438;-1.528;2023-11-18T02:09:12;5.07;;;2.72;;
64061;SDS011;50308;47.438;-1.528;2023-11-18T02:14:19;5.20;;;2.28;;
64061;SDS011;50308;47.438;-1.528;2023-11-18T02:16:49;3.95;;;2.17;;
64061;SDS011;50308;47.438;-1.528;2023-11-18T02:19:21;5.38;;;1.85;;
64061;SDS011;50308;47.438;-1.528;2023-11-18T02:21:49;3.20;;;1.90;;
64061;SDS011;50308;47.438;-1.528;2023-11-18T02:24:28;6.25;;;2.33;;
64061;SDS011;50308;47.438;-1.528;2023-11-18T02:27:06;4.95;;;1.90;;
64061;SDS011;50308;47.438;-1.528;2023-11-18T02:29:32;3.78;;;2.13;;
64061;SDS011;50308;47.438;-1.528;2023-11-18T02:34:33;4.50;;;1.75;;
64061;SDS011;50308;47.438;-1.528;2023-11-18T02:37:05;4.43;;;1.65;;
64061;SDS011;50308;47.438;-1.528;2023-11-18T02:39:35;2.28;;;1.58;;
64061;SDS011;50308;47.438;-1.528;2023-11-18T02:42:06;3.60;;;1.50;;
64061;SDS011;50308;47.438;-1.528;2023-11-18T02:44:37;3.28;;;2.00;;
64061;SDS011;50308;47.438;-1.528;2023-11-18T02:47:04;3.50;;;1.88;;
64061;SDS011;50308;47.438;-1.528;2023-11-18T02:49:30;3.22;;;1.50;;
64061;SDS011;50308;47.438;-1.528;2023-11-18T02:51:57;3.42;;;1.60;;
64061;SDS011;50308;47.438;-1.528;2023-11-18T02:54:22;2.97;;;1.30;;
64061;SDS011;50308;47.438;-1.528;2023-11-18T02:56:48;1.95;;;1.17;;
64061;SDS011;50308;47.438;-1.528;2023-11-18T02:59:15;2.85;;;1.17;;
64061;SDS011;50308;47.438;-1.528;2023-11-18T03:01:41;2.35;;;1.20;;
64061;SDS011;50308;47.438;-1.528;2023-11-18T03:04:07;2.10;;;1.08;;
64061;SDS011;50308;47.438;-1.528;2023-11-18T03:06:33;2.95;;;1.67;;
64061;SDS011;50308;47.438;-1.528;2023-11-18T03:09:00;2.38;;;1.38;;
64061;SDS011;50308;47.438;-1.528;2023-11-18T03:11:27;2.38;;;1.00;;
64061;SDS011;50308;47.438;-1.528;2023-11-18T03:13:56;2.22;;;1.20;;
64061;SDS011;50308;47.438;-1.528;2023-11-18T03:16:22;1.70;;;1.10;;
64061;SDS011;50308;47.438;-1.528;2023-11-18T03:18:49;4.28;;;1.10;;
64061;SDS011;50308;47.438;-1.528;2023-11-18T03:21:15;2.25;;;1.20;;
64061;SDS011;50308;47.438;-1.528;2023-11-18T03:23:41;3.78;;;1.50;;
64061;SDS011;50308;47.438;-1.528;2023-11-18T03:26:07;2.60;;;1.17;;
64061;SDS011;50308;47.438;-1.528;2023-11-18T03:28:33;3.28;;;1.00;;
64061;SDS011;50308;47.438;-1.528;2023-11-18T03:31:01;1.95;;;1.10;;
64061;SDS011;50308;47.438;-1.528;2023-11-18T03:33:30;3.40;;;1.00;;
64061;SDS011;50308;47.438;-1.528;2023-11-18T03:35:56;1.55;;;1.02;;
64061;SDS011;50308;47.438;-1.528;2023-11-18T03:38:21;1.88;;;1.00;;
64061;SDS011;50308;47.438;-1.528;2023-11-18T03:40:48;2.17;;;1.20;;
64061;SDS011;50308;47.438;-1.528;2023-11-18T03:43:14;1.45;;;0.90;;
64061;SDS011;50308;47.438;-1.528;2023-11-18T03:45:40;1.80;;;0.80;;
64061;SDS011;50308;47.438;-1.528;2023-11-18T03:48:06;1.38;;;0.77;;
64061;SDS011;50308;47.438;-1.528;2023-11-18T03:50:32;2.88;;;1.17;;
64061;SDS011;50308;47.438;-1.528;2023-11-18T03:52:59;3.47;;;1.20;;
64061;SDS011;50308;47.438;-1.528;2023-11-18T03:55:26;2.80;;;1.30;;
64061;SDS011;50308;47.438;-1.528;2023-11-18T03:57:52;4.45;;;1.15;;
64061;SDS011;50308;47.438;-1.528;2023-11-18T04:00:17;2.00;;;0.82;;
64061;SDS011;50308;47.438;-1.528;2023-11-18T04:02:44;1.98;;;1.30;;
64061;SDS011;50308;47.438;-1.528;2023-11-18T04:05:11;2.28;;;1.10;;
64061;SDS011;50308;47.438;-1.528;2023-11-18T04:07:37;2.00;;;1.40;;
64061;SDS011;50308;47.438;-1.528;2023-11-18T04:10:03;2.10;;;1.05;;
64061;SDS011;50308;47.438;-1.528;2023-11-18T04:12:34;1.77;;;1.10;;
64061;SDS011;50308;47.438;-1.528;2023-11-18T04:15:00;5.25;;;1.25;;
64061;SDS011;50308;47.438;-1.528;2023-11-18T04:17:25;2.70;;;1.17;;
64061;SDS011;50308;47.438;-1.528;2023-11-18T04:19:53;2.28;;;1.00;;
64061;SDS011;50308;47.438;-1.528;2023-11-18T04:22:20;2.47;;;0.88;;
64061;SDS011;50308;47.438;-1.528;2023-11-18T04:24:47;1.48;;;0.90;;
64061;SDS011;50308;47.438;-1.528;2023-11-18T04:27:12;1.85;;;0.90;;
64061;SDS011;50308;47.438;-1.528;2023-11-18T04:29:38;3.30;;;0.93;;
64061;SDS011;50308;47.438;-1.528;2023-11-18T04:32:06;1.85;;;1.00;;
64061;SDS011;50308;47.438;-1.528;2023-11-18T04:34:36;1.55;;;0.90;;
64061;SDS011;50308;47.438;-1.528;2023-11-18T04:37:05;1.75;;;0.90;;
64061;SDS011;50308;47.438;-1.528;2023-11-18T04:39:33;3.97;;;1.45;;
64061;SDS011;50308;47.438;-1.528;2023-11-18T04:41:59;2.25;;;1.00;;
64061;SDS011;50308;47.438;-1.528;2023-11-18T04:44:26;1.15;;;0.75;;
64061;SDS011;50308;47.438;-1.528;2023-11-18T04:46:52;3.45;;;1.55;;
64061;SDS011;50308;47.438;-1.528;2023-11-18T04:49:17;2.90;;;1.52;;
64061;SDS011;50308;47.438;-1.528;2023-11-18T04:51:44;6.38;;;1.90;;
64061;SDS011;50308;47.438;-1.528;2023-11-18T04:54:10;3.28;;;1.42;;
64061;SDS011;50308;47.438;-1.528;2023-11-18T04:56:36;7.57;;;3.05;;
64061;SDS011;50308;47.438;-1.528;2023-11-18T04:59:02;6.20;;;3.33;;
64061;SDS011;50308;47.438;-1.528;2023-11-18T05:01:30;5.45;;;3.08;;
64061;SDS011;50308;47.438;-1.528;2023-11-18T05:03:58;5.10;;;3.30;;
64061;SDS011;50308;47.438;-1.528;2023-11-18T05:06:24;4.82;;;2.50;;
64061;SDS011;50308;47.438;-1.528;2023-11-18T05:08:51;5.35;;;2.53;;
64061;SDS011;50308;47.438;-1.528;2023-11-18T05:11:17;4.35;;;2.20;;
64061;SDS011;50308;47.438;-1.528;2023-11-18T05:13:42;4.00;;;1.88;;
64061;SDS011;50308;47.438;-1.528;2023-11-18T05:16:08;4.28;;;1.83;;
64061;SDS011;50308;47.438;-1.528;2023-11-18T05:18:35;4.13;;;2.08;;
64061;SDS011;50308;47.438;-1.528;2023-11-18T05:21:01;6.53;;;2.35;;
64061;SDS011;50308;47.438;-1.528;2023-11-18T05:23:30;7.15;;;3.15;;
64061;SDS011;50308;47.438;-1.528;2023-11-18T05:25:56;5.75;;;2.88;;
64061;SDS011;50308;47.438;-1.528;2023-11-18T05:28:23;5.32;;;2.65;;
64061;SDS011;50308;47.438;-1.528;2023-11-18T05:30:49;4.28;;;2.38;;
64061;SDS011;50308;47.438;-1.528;2023-11-18T05:33:15;3.97;;;2.35;;
64061;SDS011;50308;47.438;-1.528;2023-11-18T05:35:43;4.32;;;2.00;;
64061;SDS011;50308;47.438;-1.528;2023-11-18T05:38:18;2.70;;;1.50;;
64061;SDS011;50308;47.438;-1.528;2023-11-18T05:40:51;3.42;;;1.40;;
64061;SDS011;50308;47.438;-1.528;2023-11-18T05:43:31;4.05;;;1.52;;
64061;SDS011;50308;47.438;-1.528;2023-11-18T05:46:03;6.32;;;2.20;;
64061;SDS011;50308;47.438;-1.528;2023-11-18T05:49:02;3.03;;;1.67;;
64061;SDS011;50308;47.438;-1.528;2023-11-18T05:51:32;3.65;;;2.33;;
64061;SDS011;50308;47.438;-1.528;2023-11-18T05:53:58;6.38;;;3.42;;
64061;SDS011;50308;47.438;-1.528;2023-11-18T05:56:23;5.90;;;2.55;;
64061;SDS011;50308;47.438;-1.528;2023-11-18T05:58:51;5.00;;;2.25;;
64061;SDS011;50308;47.438;-1.528;2023-11-18T06:01:20;3.35;;;1.50;;
64061;SDS011;50308;47.438;-1.528;2023-11-18T06:03:46;3.28;;;1.73;;
64061;SDS011;50308;47.438;-1.528;2023-11-18T06:06:12;4.65;;;2.97;;
64061;SDS011;50308;47.438;-1.528;2023-11-18T06:08:39;3.45;;;2.20;;
64061;SDS011;50308;47.438;-1.528;2023-11-18T06:11:09;4.82;;;2.47;;
64061;SDS011;50308;47.438;-1.528;2023-11-18T06:13:42;5.27;;;3.10;;
64061;SDS011;50308;47.438;-1.528;2023-11-18T06:16:09;6.13;;;1.65;;
64061;SDS011;50308;47.438;-1.528;2023-11-18T06:18:42;3.70;;;1.83;;
64061;SDS011;50308;47.438;-1.528;2023-11-18T06:21:18;3.88;;;1.65;;
64061;SDS011;50308;47.438;-1.528;2023-11-18T06:23:45;4.55;;;1.77;;
64061;SDS011;50308;47.438;-1.528;2023-11-18T06:26:12;5.82;;;1.95;;
64061;SDS011;50308;47.438;-1.528;2023-11-18T06:28:40;3.92;;;1.55;;
64061;SDS011;50308;47.438;-1.528;2023-11-18T06:31:07;3.05;;;1.40;;
64061;SDS011;50308;47.438;-1.528;2023-11-18T06:33:40;3.67;;;1.33;;
64061;SDS011;50308;47.438;-1.528;2023-11-18T06:36:16;5.57;;;1.33;;
64061;SDS011;50308;47.438;-1.528;2023-11-18T06:38:43;2.08;;;1.52;;
64061;SDS011;50308;47.438;-1.528;2023-11-18T06:41:15;3.22;;;1.27;;
64061;SDS011;50308;47.438;-1.528;2023-11-18T06:43:43;4.93;;;1.98;;
64061;SDS011;50308;47.438;-1.528;2023-11-18T06:46:29;5.80;;;1.77;;
64061;SDS011;50308;47.438;-1.528;2023-11-18T06:48:59;3.75;;;1.77;;
64061;SDS011;50308;47.438;-1.528;2023-11-18T06:51:32;4.85;;;2.35;;
64061;SDS011;50308;47.438;-1.528;2023-11-18T06:54:03;3.95;;;1.70;;
64061;SDS011;50308;47.438;-1.528;2023-11-18T06:56:35;3.13;;;1.60;;
64061;SDS011;50308;47.438;-1.528;2023-11-18T06:59:03;2.30;;;1.40;;
64061;SDS011;50308;47.438;-1.528;2023-11-18T07:01:32;4.40;;;1.40;;
64061;SDS011;50308;47.438;-1.528;2023-11-18T07:03:59;4.68;;;2.97;;
64061;SDS011;50308;47.438;-1.528;2023-11-18T07:06:24;4.85;;;2.17;;
64061;SDS011;50308;47.438;-1.528;2023-11-18T07:08:51;4.32;;;1.80;;
64061;SDS011;50308;47.438;-1.528;2023-11-18T07:11:19;5.43;;;2.33;;
64061;SDS011;50308;47.438;-1.528;2023-11-18T07:13:47;5.22;;;2.22;;
64061;SDS011;50308;47.438;-1.528;2023-11-18T07:16:21;6.68;;;2.25;;
64061;SDS011;50308;47.438;-1.528;2023-11-18T07:18:50;2.55;;;1.50;;
64061;SDS011;50308;47.438;-1.528;2023-11-18T07:21:16;8.02;;;4.20;;
64061;SDS011;50308;47.438;-1.528;2023-11-18T07:23:42;6.40;;;4.00;;
64061;SDS011;50308;47.438;-1.528;2023-11-18T07:26:08;4.20;;;2.05;;
64061;SDS011;50308;47.438;-1.528;2023-11-18T07:28:38;3.13;;;1.85;;
64061;SDS011;50308;47.438;-1.528;2023-11-18T07:31:05;6.40;;;1.98;;
64061;SDS011;50308;47.438;-1.528;2023-11-18T07:33:30;4.82;;;1.80;;
64061;SDS011;50308;47.438;-1.528;2023-11-18T07:35:57;6.15;;;1.30;;
64061;SDS011;50308;47.438;-1.528;2023-11-18T07:38:23;3.53;;;1.23;;
64061;SDS011;50308;47.438;-1.528;2023-11-18T07:40:49;3.50;;;1.27;;
64061;SDS011;50308;47.438;-1.528;2023-11-18T07:43:17;2.72;;;1.10;;
64061;SDS011;50308;47.438;-1.528;2023-11-18T07:45:46;3.35;;;1.20;;
64061;SDS011;50308;47.438;-1.528;2023-11-18T07:50:42;3.05;;;1.27;;
64061;SDS011;50308;47.438;-1.528;2023-11-18T07:53:12;6.78;;;1.55;;
64061;SDS011;50308;47.438;-1.528;2023-11-18T07:55:38;4.15;;;1.20;;
64061;SDS011;50308;47.438;-1.528;2023-11-18T07:58:08;5.85;;;1.35;;
64061;SDS011;50308;47.438;-1.528;2023-11-18T08:03:03;2.78;;;1.05;;
64061;SDS011;50308;47.438;-1.528;2023-11-18T08:05:32;3.30;;;0.98;;
64061;SDS011;50308;47.438;-1.528;2023-11-18T08:07:58;3.33;;;1.10;;
64061;SDS011;50308;47.438;-1.528;2023-11-18T08:10:24;3.13;;;0.80;;
64061;SDS011;50308;47.438;-1.528;2023-11-18T08:12:51;3.65;;;1.33;;
64061;SDS011;50308;47.438;-1.528;2023-11-18T08:15:19;4.43;;;1.20;;
64061;SDS011;50308;47.438;-1.528;2023-11-18T08:17:45;5.22;;;1.10;;
64061;SDS011;50308;47.438;-1.528;2023-11-18T08:20:11;6.05;;;1.23;;
64061;SDS011;50308;47.438;-1.528;2023-11-18T08:22:42;4.15;;;1.42;;
64061;SDS011;50308;47.438;-1.528;2023-11-18T08:25:12;3.67;;;1.20;;
64061;SDS011;50308;47.438;-1.528;2023-11-18T08:27:40;2.17;;;1.13;;
64061;SDS011;50308;47.438;-1.528;2023-11-18T08:30:07;2.85;;;0.90;;
64061;SDS011;50308;47.438;-1.528;2023-11-18T08:32:39;6.00;;;1.23;;
64061;SDS011;50308;47.438;-1.528;2023-11-18T08:35:09;6.50;;;1.30;;
64061;SDS011;50308;47.438;-1.528;2023-11-18T08:37:36;3.25;;;1.13;;
64061;SDS011;50308;47.438;-1.528;2023-11-18T08:40:06;3.85;;;1.00;;
64061;SDS011;50308;47.438;-1.528;2023-11-18T08:42:45;5.25;;;1.15;;
64061;SDS011;50308;47.438;-1.528;2023-11-18T08:45:22;3.33;;;1.27;;
64061;SDS011;50308;47.438;-1.528;2023-11-18T08:48:01;5.35;;;1.52;;
64061;SDS011;50308;47.438;-1.528;2023-11-18T08:50:32;4.82;;;1.35;;
64061;SDS011;50308;47.438;-1.528;2023-11-18T08:52:58;4.20;;;1.30;;
64061;SDS011;50308;47.438;-1.528;2023-11-18T08:55:26;5.45;;;1.20;;
64061;SDS011;50308;47.438;-1.528;2023-11-18T08:58:07;5.65;;;1.45;;
64061;SDS011;50308;47.438;-1.528;2023-11-18T09:00:53;4.53;;;1.50;;
64061;SDS011;50308;47.438;-1.528;2023-11-18T09:03:38;3.50;;;1.30;;
64061;SDS011;50308;47.438;-1.528;2023-11-18T09:06:08;4.70;;;1.40;;
64061;SDS011;50308;47.438;-1.528;2023-11-18T09:08:46;3.15;;;1.23;;
64061;SDS011;50308;47.438;-1.528;2023-11-18T09:11:18;6.00;;;1.48;;
64061;SDS011;50308;47.438;-1.528;2023-11-18T09:13:45;5.85;;;1.65;;
64061;SDS011;50308;47.438;-1.528;2023-11-18T09:16:18;6.00;;;1.33;;
64061;SDS011;50308;47.438;-1.528;2023-11-18T09:18:47;5.03;;;1.88;;
64061;SDS011;50308;47.438;-1.528;2023-11-18T09:21:13;4.30;;;1.35;;
64061;SDS011;50308;47.438;-1.528;2023-11-18T09:23:39;2.15;;;1.10;;
64061;SDS011;50308;47.438;-1.528;2023-11-18T09:26:06;6.13;;;1.20;;
64061;SDS011;50308;47.438;-1.528;2023-11-18T09:28:32;3.97;;;1.48;;
64061;SDS011;50308;47.438;-1.528;2023-11-18T09:31:00;4.50;;;1.42;;
64061;SDS011;50308;47.438;-1.528;2023-11-18T09:33:28;3.88;;;1.85;;
64061;SDS011;50308;47.438;-1.528;2023-11-18T09:35:58;4.63;;;1.40;;
64061;SDS011;50308;47.438;-1.528;2023-11-18T09:38:24;3.75;;;1.27;;
64061;SDS011;50308;47.438;-1.528;2023-11-18T09:40:53;4.72;;;1.42;;
64061;SDS011;50308;47.438;-1.528;2023-11-18T09:43:19;3.42;;;1.25;;
64061;SDS011;50308;47.438;-1.528;2023-11-18T09:45:54;6.63;;;1.58;;
64061;SDS011;50308;47.438;-1.528;2023-11-18T09:48:21;5.82;;;1.25;;
64061;SDS011;50308;47.438;-1.528;2023-11-18T09:50:50;4.15;;;1.40;;
64061;SDS011;50308;47.438;-1.528;2023-11-18T09:53:17;3.13;;;1.10;;
64061;SDS011;50308;47.438;-1.528;2023-11-18T09:55:47;3.25;;;1.13;;
64061;SDS011;50308;47.438;-1.528;2023-11-18T09:58:20;6.03;;;1.42;;
64061;SDS011;50308;47.438;-1.528;2023-11-18T10:00:49;3.05;;;1.65;;
64061;SDS011;50308;47.438;-1.528;2023-11-18T10:03:16;2.90;;;1.30;;
64061;SDS011;50308;47.438;-1.528;2023-11-18T10:05:42;2.85;;;1.08;;
64061;SDS011;50308;47.438;-1.528;2023-11-18T10:08:08;4.40;;;1.30;;
64061;SDS011;50308;47.438;-1.528;2023-11-18T10:10:34;3.65;;;1.10;;
64061;SDS011;50308;47.438;-1.528;2023-11-18T10:13:03;5.30;;;1.30;;
64061;SDS011;50308;47.438;-1.528;2023-11-18T10:15:33;3.40;;;1.42;;
64061;SDS011;50308;47.438;-1.528;2023-11-18T10:18:00;6.93;;;1.30;;
64061;SDS011;50308;47.438;-1.528;2023-11-18T10:20:49;4.57;;;1.20;;
64061;SDS011;50308;47.438;-1.528;2023-11-18T10:23:19;3.55;;;1.30;;
64061;SDS011;50308;47.438;-1.528;2023-11-18T10:25:48;4.47;;;1.48;;
64061;SDS011;50308;47.438;-1.528;2023-11-18T10:28:28;3.38;;;1.35;;
64061;SDS011;50308;47.438;-1.528;2023-11-18T10:30:58;2.33;;;1.10;;
64061;SDS011;50308;47.438;-1.528;2023-11-18T10:33:32;2.70;;;1.25;;
64061;SDS011;50308;47.438;-1.528;2023-11-18T10:36:01;3.85;;;1.30;;
64061;SDS011;50308;47.438;-1.528;2023-11-18T10:38:38;3.10;;;1.42;;
64061;SDS011;50308;47.438;-1.528;2023-11-18T10:41:08;4.00;;;1.30;;
64061;SDS011;50308;47.438;-1.528;2023-11-18T10:43:34;4.53;;;1.25;;
64061;SDS011;50308;47.438;-1.528;2023-11-18T10:48:37;3.15;;;1.13;;
64061;SDS011;50308;47.438;-1.528;2023-11-18T10:51:12;3.47;;;1.33;;
64061;SDS011;50308;47.438;-1.528;2023-11-18T10:53:41;4.13;;;1.17;;
64061;SDS011;50308;47.438;-1.528;2023-11-18T10:56:18;2.20;;;1.23;;
64061;SDS011;50308;47.438;-1.528;2023-11-18T10:58:51;3.83;;;1.00;;
64061;SDS011;50308;47.438;-1.528;2023-11-18T11:01:27;4.30;;;1.23;;
64061;SDS011;50308;47.438;-1.528;2023-11-18T11:03:53;4.80;;;1.08;;
64061;SDS011;50308;47.438;-1.528;2023-11-18T11:06:25;4.97;;;1.60;;
64061;SDS011;50308;47.438;-1.528;2023-11-18T11:08:55;5.65;;;1.55;;
64061;SDS011;50308;47.438;-1.528;2023-11-18T11:11:24;3.67;;;1.00;;
64061;SDS011;50308;47.438;-1.528;2023-11-18T11:13:57;3.55;;;1.30;;
64061;SDS011;50308;47.438;-1.528;2023-11-18T11:16:33;3.67;;;1.30;;
64061;SDS011;50308;47.438;-1.528;2023-11-18T11:19:04;4.88;;;1.40;;
64061;SDS011;50308;47.438;-1.528;2023-11-18T11:21:33;3.25;;;1.13;;
64061;SDS011;50308;47.438;-1.528;2023-11-18T11:24:14;2.70;;;1.20;;
64061;SDS011;50308;47.438;-1.528;2023-11-18T11:27:04;3.15;;;1.05;;
64061;SDS011;50308;47.438;-1.528;2023-11-18T11:29:42;2.90;;;1.45;;
64061;SDS011;50308;47.438;-1.528;2023-11-18T11:32:28;3.63;;;1.52;;
64061;SDS011;50308;47.438;-1.528;2023-11-18T11:35:03;4.70;;;1.60;;
64061;SDS011;50308;47.438;-1.528;2023-11-18T11:37:41;3.90;;;1.48;;
64061;SDS011;50308;47.438;-1.528;2023-11-18T11:40:09;5.43;;;1.50;;
64061;SDS011;50308;47.438;-1.528;2023-11-18T11:42:37;2.97;;;1.30;;
64061;SDS011;50308;47.438;-1.528;2023-11-18T11:45:07;2.60;;;1.38;;
64061;SDS011;50308;47.438;-1.528;2023-11-18T11:47:45;4.10;;;1.80;;
64061;SDS011;50308;47.438;-1.528;2023-11-18T11:50:19;6.30;;;1.45;;
64061;SDS011;50308;47.438;-1.528;2023-11-18T11:52:58;4.60;;;1.17;;
64061;SDS011;50308;47.438;-1.528;2023-11-18T11:55:40;3.13;;;1.23;;
64061;SDS011;50308;47.438;-1.528;2023-11-18T11:58:30;2.95;;;1.08;;
64061;SDS011;50308;47.438;-1.528;2023-11-18T12:01:01;5.47;;;1.48;;
64061;SDS011;50308;47.438;-1.528;2023-11-18T12:03:42;3.25;;;1.58;;
64061;SDS011;50308;47.438;-1.528;2023-11-18T12:06:12;4.20;;;1.70;;
64061;SDS011;50308;47.438;-1.528;2023-11-18T12:08:48;4.07;;;1.50;;
64061;SDS011;50308;47.438;-1.528;2023-11-18T12:11:17;3.58;;;1.50;;
64061;SDS011;50308;47.438;-1.528;2023-11-18T12:19:37;4.10;;;1.75;;
64061;SDS011;50308;47.438;-1.528;2023-11-18T12:22:24;3.00;;;1.55;;
64061;SDS011;50308;47.438;-1.528;2023-11-18T12:30:05;4.43;;;1.85;;
64061;SDS011;50308;47.438;-1.528;2023-11-18T12:32:58;3.92;;;1.48;;
64061;SDS011;50308;47.438;-1.528;2023-11-18T12:41:00;6.53;;;1.98;;
64061;SDS011;50308;47.438;-1.528;2023-11-18T12:49:10;6.03;;;2.65;;
64061;SDS011;50308;47.438;-1.528;2023-11-18T12:51:42;4.05;;;1.98;;
64061;SDS011;50308;47.438;-1.528;2023-11-18T12:54:09;4.38;;;1.83;;
64061;SDS011;50308;47.438;-1.528;2023-11-18T12:56:41;9.98;;;2.47;;
64061;SDS011;50308;47.438;-1.528;2023-11-18T12:59:13;7.82;;;2.17;;
64061;SDS011;50308;47.438;-1.528;2023-11-18T13:01:42;8.45;;;1.92;;
64061;SDS011;50308;47.438;-1.528;2023-11-18T13:04:16;6.32;;;1.90;;
64061;SDS011;50308;47.438;-1.528;2023-11-18T13:06:44;5.03;;;2.28;;
64061;SDS011;50308;47.438;-1.528;2023-11-18T13:09:11;8.55;;;1.88;;
64061;SDS011;50308;47.438;-1.528;2023-11-18T13:11:43;3.75;;;1.40;;
64061;SDS011;50308;47.438;-1.528;2023-11-18T13:14:12;7.88;;;2.45;;
64061;SDS011;50308;47.438;-1.528;2023-11-18T13:16:37;5.30;;;2.40;;
64061;SDS011;50308;47.438;-1.528;2023-11-18T13:19:03;6.03;;;2.10;;
64061;SDS011;50308;47.438;-1.528;2023-11-18T13:21:30;7.78;;;1.92;;
64061;SDS011;50308;47.438;-1.528;2023-11-18T13:24:01;5.28;;;1.73;;
64061;SDS011;50308;47.438;-1.528;2023-11-18T13:26:30;6.82;;;1.70;;
64061;SDS011;50308;47.438;-1.528;2023-11-18T13:28:58;6.75;;;1.88;;
64061;SDS011;50308;47.438;-1.528;2023-11-18T13:31:26;4.03;;;1.52;;
64061;SDS011;50308;47.438;-1.528;2023-11-18T13:33:52;5.80;;;2.00;;
64061;SDS011;50308;47.438;-1.528;2023-11-18T13:36:18;8.32;;;2.20;;
64061;SDS011;50308;47.438;-1.528;2023-11-18T13:38:47;5.65;;;2.00;;
64061;SDS011;50308;47.438;-1.528;2023-11-18T13:41:27;6.45;;;2.13;;
64061;SDS011;50308;47.438;-1.528;2023-11-18T13:43:56;5.70;;;1.85;;
64061;SDS011;50308;47.438;-1.528;2023-11-18T13:46:23;8.50;;;2.25;;
64061;SDS011;50308;47.438;-1.528;2023-11-18T13:48:49;8.68;;;2.38;;
64061;SDS011;50308;47.438;-1.528;2023-11-18T13:51:16;6.13;;;2.67;;
64061;SDS011;50308;47.438;-1.528;2023-11-18T13:53:44;7.90;;;2.60;;
64061;SDS011;50308;47.438;-1.528;2023-11-18T13:56:11;8.95;;;2.92;;
64061;SDS011;50308;47.438;-1.528;2023-11-18T13:58:41;9.38;;;2.75;;
64061;SDS011;50308;47.438;-1.528;2023-11-18T14:01:07;8.40;;;2.88;;
64061;SDS011;50308;47.438;-1.528;2023-11-18T14:03:35;11.45;;;3.58;;
64061;SDS011;50308;47.438;-1.528;2023-11-18T14:06:02;10.27;;;3.60;;
64061;SDS011;50308;47.438;-1.528;2023-11-18T14:08:30;12.50;;;4.05;;
64061;SDS011;50308;47.438;-1.528;2023-11-18T14:10:56;8.60;;;3.20;;
64061;SDS011;50308;47.438;-1.528;2023-11-18T14:13:21;9.13;;;3.47;;
64061;SDS011;50308;47.438;-1.528;2023-11-18T14:15:47;9.68;;;3.65;;
64061;SDS011;50308;47.438;-1.528;2023-11-18T14:18:14;11.57;;;3.42;;
64061;SDS011;50308;47.438;-1.528;2023-11-18T14:20:40;11.75;;;3.72;;
64061;SDS011;50308;47.438;-1.528;2023-11-18T14:23:05;8.38;;;3.33;;
64061;SDS011;50308;47.438;-1.528;2023-11-18T14:25:33;9.70;;;3.75;;
64061;SDS011;50308;47.438;-1.528;2023-11-18T14:27:59;9.23;;;3.05;;
64061;SDS011;50308;47.438;-1.528;2023-11-18T14:30:25;9.50;;;3.28;;
64061;SDS011;50308;47.438;-1.528;2023-11-18T14:32:51;7.10;;;2.95;;
64061;SDS011;50308;47.438;-1.528;2023-11-18T14:35:17;8.70;;;3.10;;
64061;SDS011;50308;47.438;-1.528;2023-11-18T14:37:43;8.18;;;2.90;;
64061;SDS011;50308;47.438;-1.528;2023-11-18T14:40:10;8.70;;;3.58;;
64061;SDS011;50308;47.438;-1.528;2023-11-18T14:45:07;7.82;;;3.17;;
64061;SDS011;50308;47.438;-1.528;2023-11-18T14:47:33;13.02;;;3.30;;
64061;SDS011;50308;47.438;-1.528;2023-11-18T14:49:59;8.32;;;3.20;;
64061;SDS011;50308;47.438;-1.528;2023-11-18T14:52:26;9.95;;;3.65;;
64061;SDS011;50308;47.438;-1.528;2023-11-18T14:54:51;10.50;;;3.58;;
64061;SDS011;50308;47.438;-1.528;2023-11-18T14:57:17;7.22;;;2.90;;
64061;SDS011;50308;47.438;-1.528;2023-11-18T14:59:44;9.93;;;2.70;;
64061;SDS011;50308;47.438;-1.528;2023-11-18T15:02:09;5.72;;;2.28;;
64061;SDS011;50308;47.438;-1.528;2023-11-18T15:04:35;10.65;;;2.75;;
64061;SDS011;50308;47.438;-1.528;2023-11-18T15:07:01;12.10;;;2.65;;
64061;SDS011;50308;47.438;-1.528;2023-11-18T15:09:27;8.80;;;3.22;;
64061;SDS011;50308;47.438;-1.528;2023-11-18T15:11:56;9.10;;;3.13;;
64061;SDS011;50308;47.438;-1.528;2023-11-18T15:14:23;8.35;;;3.00;;
64061;SDS011;50308;47.438;-1.528;2023-11-18T15:16:51;7.20;;;2.63;;
64061;SDS011;50308;47.438;-1.528;2023-11-18T15:19:18;9.18;;;2.88;;
64061;SDS011;50308;47.438;-1.528;2023-11-18T15:21:44;8.02;;;2.65;;